Stoystown, Pennsylvania
Current Conditions -  °F | °C
As of 9:15 AM on Monday 26 Jan 2015 (Local Time) from K2G9 Reporting Station
Light Snow Light Snow  
Wind Chill: 14°   Ceiling: 3100
Heat Index: 21°   Visibility: 1.2mi
Dew Point: 19°   Wind: 6mph
Humidity: 93%   Direction: 90°E
Pressure: 29.66"   Gusts: NA
Location:  40.1°N, 78.95°W
Report Text: K2G9 261415Z AUTO 09005KT 1 1/4SM -SN BKN031 OVC036 M06/M07 A2966 RMK AO2
Loading
Personal Weather Stations






























Interactive Weather Map New forecast layout! Learn more

10-Day Weather Forecast

Advertisements
Track Severe Weather on mobile